Time;durP1;ratioP1;P1;durP2;ratioP2;P2;SDS_P1;SDS_P2;PMS_P1;PMS_P2;Temp;Humidity;BMP_temperature;BMP_pressure;BME280_temperature;BME280_humidity;BME280_pressure;Samples;Min_cycle;Max_cycle;Signal;HPM_P1;HPM_P2
2021/12/14 00:01:53;;;;;;;10.60;7.57;;;24.60;59.20;;;;;;4946369;23;20065;-78
2021/12/14 00:04:05;;;;;;;11.18;7.53;;;24.70;59.20;;;;;;4922384;23;20058;-79
2021/12/14 00:06:08;;;;;;;9.70;7.15;;;24.60;59.20;;;;;;4916745;23;20751;-75
2021/12/14 00:08:14;;;;;;;9.77;7.13;;;24.70;59.40;;;;;;4935068;23;20121;-77
2021/12/14 00:12:39;;;;;;;9.80;7.70;;;24.70;59.20;;;;;;4931757;23;20087;-79
2021/12/14 00:17:01;;;;;;;8.25;5.97;;;24.80;59.10;;;;;;4936443;23;20171;-75
2021/12/14 00:19:06;;;;;;;9.27;6.45;;;24.80;59.00;;;;;;4933440;23;20038;-77
2021/12/14 00:21:19;;;;;;;7.90;6.05;;;24.80;59.00;;;;;;4931877;23;20051;-82
2021/12/14 00:25:55;;;;;;;10.20;6.13;;;24.90;58.90;;;;;;4932886;23;20151;-72
2021/12/14 00:28:01;;;;;;;7.93;6.03;;;24.90;58.80;;;;;;4933082;23;20034;-74
2021/12/14 00:30:07;;;;;;;8.10;6.20;;;25.00;58.90;;;;;;4935377;23;20102;-73
2021/12/14 00:32:17;;;;;;;7.63;5.65;;;25.00;58.80;;;;;;4935468;23;20031;-79
2021/12/14 00:34:36;;;;;;;7.35;5.22;;;25.00;58.90;;;;;;4936384;23;20571;-76
2021/12/14 00:36:42;;;;;;;8.45;5.05;;;25.00;58.80;;;;;;4909072;23;20187;-77
2021/12/14 00:38:51;;;;;;;7.32;5.35;;;25.00;58.80;;;;;;4914024;23;20032;-76
2021/12/14 00:40:58;;;;;;;6.25;4.80;;;25.00;58.80;;;;;;4921735;23;20434;-85
2021/12/14 00:43:01;;;;;;;6.75;5.05;;;25.00;58.60;;;;;;4920757;23;20304;-80
2021/12/14 00:45:04;;;;;;;6.05;4.70;;;25.10;58.60;;;;;;4916430;23;20094;-82
2021/12/14 00:47:06;;;;;;;7.30;5.20;;;25.10;58.50;;;;;;4915350;23;20028;-76
2021/12/14 00:49:12;;;;;;;5.80;4.90;;;25.10;58.70;;;;;;4898222;24;20174;-84
2021/12/14 00:51:21;;;;;;;6.93;4.97;;;25.10;58.70;;;;;;4899457;23;20032;-83
2021/12/14 00:53:23;;;;;;;6.10;4.85;;;25.20;58.80;;;;;;4925605;23;20027;-78
2021/12/14 00:55:41;;;;;;;7.10;5.53;;;25.20;58.70;;;;;;4922720;23;20053;-80
2021/12/14 00:57:44;;;;;;;7.18;5.07;;;25.20;58.80;;;;;;4897826;24;20107;-81
2021/12/14 00:59:46;;;;;;;7.78;5.28;;;25.20;58.70;;;;;;4922025;23;20042;-85
2021/12/14 01:23:33;;;;;;;13.23;8.02;;;25.60;58.10;;;;;;5186980;22;20040;-57
2021/12/14 01:25:38;;;;;;;11.10;7.40;;;25.60;58.10;;;;;;5188552;22;20030;-56
2021/12/14 01:27:49;;;;;;;11.85;7.50;;;25.60;58.30;;;;;;5192676;22;20029;-56
2021/12/14 01:29:54;;;;;;;10.43;7.93;;;25.60;58.10;;;;;;5191444;22;20118;-56
2021/12/14 01:32:00;;;;;;;10.85;7.00;;;25.70;58.20;;;;;;5192728;22;20623;-54
2021/12/14 01:34:06;;;;;;;9.85;7.18;;;25.70;58.20;;;;;;5188571;22;20027;-57
2021/12/14 01:36:23;;;;;;;12.40;7.70;;;25.70;58.20;;;;;;5186934;22;20831;-59
2021/12/14 01:42:54;;;;;;;13.68;9.82;;;25.60;57.50;;;;;;5192706;22;20103;-59
2021/12/14 01:45:22;;;;;;;12.10;9.18;;;25.60;57.50;;;;;;5193069;22;20102;-59
2021/12/14 01:47:48;;;;;;;16.05;9.35;;;25.60;57.50;;;;;;5198642;22;20515;-59
2021/12/14 01:49:51;;;;;;;15.68;11.02;;;25.60;57.40;;;;;;5189458;22;20023;-59
2021/12/14 01:51:57;;;;;;;17.05;10.82;;;25.60;57.50;;;;;;5197793;22;20118;-59
2021/12/14 01:54:00;;;;;;;14.93;9.90;;;25.60;57.50;;;;;;5195248;22;20030;-59
2021/12/14 01:56:07;;;;;;;12.52;9.43;;;25.60;57.40;;;;;;5186912;22;20060;-58
2021/12/14 01:58:11;;;;;;;14.77;9.45;;;25.60;57.50;;;;;;5186608;22;20022;-58
2021/12/14 02:00:46;;;;;;;12.90;9.15;;;25.60;57.50;;;;;;5189086;22;20746;-58
2021/12/14 02:02:49;;;;;;;11.88;8.75;;;25.50;57.40;;;;;;5193959;22;20960;-58
2021/12/14 02:04:54;;;;;;;10.10;7.82;;;25.60;57.50;;;;;;5185535;22;20046;-58
2021/12/14 02:07:03;;;;;;;10.30;8.05;;;25.50;57.40;;;;;;5182355;22;20045;-57
2021/12/14 02:09:15;;;;;;;12.00;7.40;;;25.50;57.40;;;;;;5182482;22;20023;-58
2021/12/14 02:11:17;;;;;;;10.20;6.40;;;25.50;57.40;;;;;;5181378;22;20031;-58
2021/12/14 02:13:29;;;;;;;8.68;5.53;;;25.60;57.50;;;;;;5187036;22;20050;-59
2021/12/14 02:15:45;;;;;;;7.68;5.53;;;25.60;57.80;;;;;;5155719;22;20142;-58
2021/12/14 02:17:47;;;;;;;9.30;5.35;;;25.60;58.00;;;;;;5185413;22;20022;-55
2021/12/14 02:19:51;;;;;;;6.63;4.60;;;25.60;57.90;;;;;;5179901;22;20053;-57
2021/12/14 02:21:54;;;;;;;7.90;4.47;;;25.60;57.70;;;;;;5174949;22;20100;-59
2021/12/14 02:24:00;;;;;;;15.90;4.45;;;25.70;57.70;;;;;;5148883;22;20023;-56
2021/12/14 02:26:06;;;;;;;9.63;4.45;;;25.70;57.70;;;;;;5180855;22;20119;-55
2021/12/14 02:28:17;;;;;;;7.70;4.30;;;25.70;57.80;;;;;;5182573;22;20014;-54
2021/12/14 02:30:26;;;;;;;5.93;4.22;;;25.70;57.90;;;;;;5178450;22;20026;-55
2021/12/14 02:32:28;;;;;;;6.82;4.00;;;25.70;58.10;;;;;;5177167;22;20029;-57
2021/12/14 02:34:31;;;;;;;6.00;3.97;;;25.70;58.10;;;;;;5177526;22;20038;-55
2021/12/14 02:36:39;;;;;;;6.47;3.40;;;25.70;58.20;;;;;;5182166;22;20079;-55
2021/12/14 02:38:45;;;;;;;8.68;4.00;;;25.80;58.30;;;;;;5184171;22;20061;-57
2021/12/14 02:41:01;;;;;;;4.82;3.10;;;25.80;58.30;;;;;;5182617;22;20594;-54
2021/12/14 02:43:04;;;;;;;4.22;2.67;;;25.80;58.30;;;;;;5132790;22;20043;-52
2021/12/14 02:45:08;;;;;;;7.18;3.22;;;25.80;58.50;;;;;;5177431;22;20088;-52
2021/12/14 02:47:14;;;;;;;5.03;2.78;;;25.90;58.50;;;;;;5152079;22;20027;-49
2021/12/14 02:49:21;;;;;;;5.30;2.60;;;25.90;58.70;;;;;;5149593;22;20023;-54
2021/12/14 02:51:29;;;;;;;6.95;3.00;;;25.90;58.70;;;;;;5183513;22;20105;-51
2021/12/14 02:53:32;;;;;;;7.18;2.70;;;25.90;58.70;;;;;;5184428;22;20071;-51
2021/12/14 02:55:34;;;;;;;6.13;3.00;;;25.90;58.70;;;;;;5175837;22;20088;-52
2021/12/14 02:57:40;;;;;;;5.60;2.42;;;25.90;58.70;;;;;;5174881;22;20026;-50
2021/12/14 02:59:45;;;;;;;6.07;2.60;;;26.00;58.60;;;;;;5180304;22;20023;-51
2021/12/14 03:01:50;;;;;;;4.53;2.10;;;26.00;58.60;;;;;;5175872;22;20027;-50
2021/12/14 03:03:52;;;;;;;4.47;2.10;;;26.00;58.70;;;;;;5177400;22;21010;-47
2021/12/14 03:05:59;;;;;;;5.17;2.13;;;26.00;58.60;;;;;;5175642;22;20037;-53
2021/12/14 03:08:24;;;;;;;4.95;2.10;;;26.00;58.60;;;;;;5148132;22;20108;-58
2021/12/14 03:10:36;;;;;;;10.75;2.25;;;26.10;58.70;;;;;;5176672;22;20030;-51
2021/12/14 03:12:42;;;;;;;5.85;1.80;;;26.10;59.00;;;;;;5177212;22;20317;-51
2021/12/14 03:15:15;;;;;;;5.18;1.98;;;26.10;59.00;;;;;;5177148;22;20034;-54
2021/12/14 03:17:18;;;;;;;7.13;2.03;;;26.10;59.20;;;;;;5151464;22;20034;-55
2021/12/14 03:19:20;;;;;;;4.60;1.90;;;26.10;59.30;;;;;;5182240;22;20912;-49
2021/12/14 03:21:27;;;;;;;4.40;1.60;;;26.20;59.30;;;;;;5173041;22;20542;-52
2021/12/14 03:23:33;;;;;;;3.17;1.63;;;26.20;59.30;;;;;;5174441;22;20288;-52
2021/12/14 03:25:42;;;;;;;2.85;1.42;;;26.30;59.40;;;;;;5174731;22;20038;-50
2021/12/14 03:27:45;;;;;;;2.63;1.20;;;26.30;59.30;;;;;;5181268;22;20033;-53
2021/12/14 03:29:47;;;;;;;1.88;1.00;;;26.30;59.20;;;;;;5180998;22;20038;-52
2021/12/14 03:31:53;;;;;;;3.05;1.45;;;26.30;59.20;;;;;;5171707;22;21102;-52
2021/12/14 03:34:11;;;;;;;2.10;0.90;;;26.30;59.30;;;;;;5173943;22;20793;-53
2021/12/14 03:36:20;;;;;;;2.17;1.08;;;26.40;59.30;;;;;;5171266;22;20027;-53
2021/12/14 03:38:35;;;;;;;2.03;1.23;;;26.40;59.20;;;;;;5174329;22;20046;-53
2021/12/14 03:40:37;;;;;;;3.17;1.40;;;26.40;59.20;;;;;;5174472;22;20033;-53
2021/12/14 03:42:43;;;;;;;1.80;1.10;;;26.50;59.20;;;;;;5180048;22;20476;-55
2021/12/14 03:44:48;;;;;;;2.42;1.15;;;26.50;59.20;;;;;;5180498;22;20026;-50
2021/12/14 03:47:01;;;;;;;2.47;1.10;;;26.50;59.30;;;;;;5177682;22;21019;-51
2021/12/14 03:49:07;;;;;;;1.98;1.33;;;26.50;59.10;;;;;;5180606;22;20926;-53
2021/12/14 03:51:09;;;;;;;2.55;1.08;;;26.60;59.20;;;;;;5148070;22;20027;-55
2021/12/14 03:53:12;;;;;;;2.38;0.88;;;26.50;59.10;;;;;;5172648;22;20033;-53
2021/12/14 03:55:25;;;;;;;4.53;1.20;;;26.60;59.30;;;;;;5123768;22;20422;-49
2021/12/14 03:57:27;;;;;;;1.73;0.80;;;26.60;59.30;;;;;;5149434;22;20471;-51
2021/12/14 03:59:31;;;;;;;1.13;0.90;;;26.60;59.10;;;;;;5171299;22;20029;-50
2021/12/14 04:02:18;;;;;;;0.63;0.63;;;26.60;58.40;;;;;;4120282;27;20501;-50
2021/12/14 04:04:25;;;;;;;1.42;0.95;;;26.70;59.10;;;;;;4118408;28;20170;-52
2021/12/14 04:06:28;;;;;;;1.70;0.95;;;26.70;59.20;;;;;;4116415;28;20056;-50
2021/12/14 04:08:30;;;;;;;1.50;0.80;;;26.70;59.20;;;;;;4128052;28;20044;-46
2021/12/14 04:10:35;;;;;;;0.90;0.65;;;26.70;59.40;;;;;;4125700;28;20052;-50
2021/12/14 04:12:37;;;;;;;1.20;0.60;;;26.90;59.10;;;;;;4122672;28;20135;-52
2021/12/14 04:14:42;;;;;;;2.13;0.90;;;26.80;58.90;;;;;;4121323;28;20051;-51
2021/12/14 04:16:48;;;;;;;3.38;0.98;;;26.90;59.00;;;;;;4133213;28;20067;-50
2021/12/14 04:18:51;;;;;;;2.42;0.80;;;26.90;59.00;;;;;;4130348;28;20049;-53
2021/12/14 04:20:55;;;;;;;1.88;0.70;;;26.90;59.00;;;;;;4123399;28;20052;-50
2021/12/14 04:22:58;;;;;;;0.80;0.45;;;27.00;58.90;;;;;;4122218;28;20244;-51
2021/12/14 04:25:07;;;;;;;1.33;0.70;;;27.00;58.90;;;;;;4133984;28;20052;-47
2021/12/14 04:27:14;;;;;;;1.90;0.90;;;27.10;58.80;;;;;;4131562;28;20490;-50
2021/12/14 04:29:17;;;;;;;0.75;0.63;;;27.10;58.80;;;;;;4128185;28;21156;-49
2021/12/14 04:31:20;;;;;;;0.82;0.57;;;27.10;58.70;;;;;;4122291;28;20056;-51
2021/12/14 04:33:33;;;;;;;2.47;0.88;;;27.20;58.70;;;;;;4125983;28;20124;-49
2021/12/14 04:35:40;;;;;;;1.23;0.65;;;27.20;58.50;;;;;;4105830;28;20057;-46
2021/12/14 04:37:44;;;;;;;1.65;0.80;;;27.30;58.50;;;;;;4113916;28;20094;-48
2021/12/14 04:39:53;;;;;;;0.98;0.63;;;27.30;58.50;;;;;;4114894;28;20078;-50
2021/12/14 04:51:59;;;;;;;1.90;0.70;;;27.60;58.20;;;;;;4108216;28;20049;-48
2021/12/14 04:54:03;;;;;;;6.47;0.88;;;27.70;58.00;;;;;;4108233;28;21218;-49
2021/12/14 04:56:10;;;;;;;2.45;0.70;;;27.70;57.90;;;;;;4104623;28;20799;-46
2021/12/14 04:58:14;;;;;;;1.42;0.70;;;27.80;57.40;;;;;;4105742;28;20059;-51
2021/12/14 05:00:35;;;;;;;4.45;0.80;;;27.80;57.70;;;;;;4116727;28;20598;-50
2021/12/14 05:02:38;;;;;;;2.85;0.70;;;27.90;57.80;;;;;;4042244;28;20052;-49
2021/12/14 05:04:41;;;;;;;1.10;0.45;;;27.90;57.60;;;;;;4090680;28;20076;-51
2021/12/14 05:06:47;;;;;;;0.90;0.60;;;28.00;57.50;;;;;;4108853;28;20225;-50
2021/12/14 05:09:23;;;;;;;1.48;0.77;;;28.00;57.60;;;;;;4091239;28;20096;-49
2021/12/14 05:11:25;;;;;;;0.88;0.47;;;28.10;57.50;;;;;;4107408;28;21529;-50
2021/12/14 05:13:32;;;;;;;1.45;0.60;;;28.10;57.40;;;;;;4104737;28;20053;-55
2021/12/14 05:15:41;;;;;;;1.90;0.60;;;28.20;57.40;;;;;;4104699;28;20078;-53
2021/12/14 05:17:46;;;;;;;1.63;0.50;;;28.30;57.40;;;;;;4098516;28;20138;-52
2021/12/14 05:19:50;;;;;;;2.50;0.73;;;28.30;57.20;;;;;;4098697;28;20053;-49
2021/12/14 05:21:53;;;;;;;1.75;0.75;;;28.40;57.20;;;;;;4097852;28;20893;-52
2021/12/14 05:23:58;;;;;;;0.75;0.60;;;28.40;57.10;;;;;;4091172;28;20131;-52
2021/12/14 05:26:06;;;;;;;3.63;0.70;;;28.40;57.10;;;;;;4104469;28;21699;-53
2021/12/14 05:28:14;;;;;;;0.95;0.57;;;28.50;57.00;;;;;;4083183;28;20069;-57
2021/12/14 05:30:27;;;;;;;2.15;0.77;;;28.50;56.90;;;;;;4099276;28;20564;-51
2021/12/14 05:32:29;;;;;;;2.72;0.80;;;28.50;56.90;;;;;;4099103;28;20053;-47
2021/12/14 05:34:32;;;;;;;2.22;0.63;;;28.50;57.00;;;;;;4101347;28;20071;-52
2021/12/14 05:36:34;;;;;;;9.25;0.88;;;28.50;56.90;;;;;;4108518;28;20055;-48
2021/12/14 05:38:54;;;;;;;2.38;0.60;;;28.50;57.00;;;;;;4099151;28;20213;-55
2021/12/14 05:41:09;;;;;;;1.13;0.63;;;28.50;57.00;;;;;;4105753;28;20080;-52
2021/12/14 05:43:15;;;;;;;0.65;0.60;;;28.50;57.00;;;;;;4109450;28;20044;-51
2021/12/14 05:45:22;;;;;;;2.67;0.65;;;28.50;57.00;;;;;;4105659;28;20057;-53
2021/12/14 05:47:25;;;;;;;1.25;0.60;;;28.50;57.20;;;;;;4098756;28;20053;-48
2021/12/14 05:49:29;;;;;;;1.30;0.50;;;28.60;57.40;;;;;;4103254;28;20082;-48
2021/12/14 05:51:32;;;;;;;0.98;0.55;;;28.60;57.40;;;;;;4111353;28;20072;-51
2021/12/14 05:53:38;;;;;;;0.98;0.60;;;28.60;57.30;;;;;;4115085;28;20170;-50
2021/12/14 05:55:41;;;;;;;1.13;0.75;;;28.60;57.50;;;;;;4105116;28;20053;-47
2021/12/14 05:57:43;;;;;;;1.10;0.50;;;28.60;57.30;;;;;;4103232;28;20642;-53
2021/12/14 05:59:48;;;;;;;1.47;0.70;;;28.60;57.20;;;;;;4111911;28;20053;-52
2021/12/14 06:01:51;;;;;;;1.75;0.60;;;28.70;57.40;;;;;;4108835;28;20063;-52
2021/12/14 06:04:01;;;;;;;1.92;0.63;;;28.70;57.40;;;;;;4096857;28;20052;-52
2021/12/14 06:06:04;;;;;;;0.75;0.60;;;28.70;57.40;;;;;;4094120;28;20107;-55
2021/12/14 06:08:06;;;;;;;1.17;0.60;;;28.70;57.40;;;;;;4097671;28;20045;-53
2021/12/14 06:10:11;;;;;;;1.73;0.77;;;28.80;57.50;;;;;;4107345;28;20064;-53
2021/12/14 06:12:17;;;;;;;1.48;0.70;;;28.80;57.40;;;;;;4098037;28;20669;-52
2021/12/14 06:14:23;;;;;;;2.38;0.88;;;28.80;57.20;;;;;;4098131;28;20059;-49
2021/12/14 06:16:36;;;;;;;2.20;0.82;;;28.90;57.70;;;;;;4079549;28;20681;-52
2021/12/14 06:18:38;;;;;;;1.33;0.70;;;28.90;57.10;;;;;;4096788;28;20549;-52
2021/12/14 06:20:44;;;;;;;1.37;0.70;;;28.90;56.80;;;;;;4105325;28;20184;-56
2021/12/14 06:22:48;;;;;;;1.50;0.70;;;28.90;56.80;;;;;;4102353;28;20139;-49
2021/12/14 06:25:04;;;;;;;1.45;0.70;;;29.00;57.10;;;;;;4095299;28;20136;-53
2021/12/14 06:27:10;;;;;;;2.78;0.88;;;29.00;57.10;;;;;;4092806;28;21839;-56
2021/12/14 06:29:26;;;;;;;1.30;0.77;;;29.00;57.00;;;;;;4095813;28;20049;-55
2021/12/14 06:31:28;;;;;;;1.33;0.75;;;29.00;57.00;;;;;;4086349;28;20677;-57
2021/12/14 06:33:33;;;;;;;1.97;0.93;;;29.00;57.00;;;;;;4093650;28;20059;-55
2021/12/14 06:35:41;;;;;;;3.40;0.98;;;29.10;57.00;;;;;;4084178;28;21420;-54
2021/12/14 06:38:11;;;;;;;1.85;0.75;;;29.10;56.90;;;;;;4104339;28;20064;-49
2021/12/14 06:40:17;;;;;;;2.20;0.93;;;29.10;56.80;;;;;;4092425;28;20049;-52
2021/12/14 06:42:19;;;;;;;2.45;0.98;;;29.10;56.90;;;;;;4091185;28;20628;-49
2021/12/14 06:44:21;;;;;;;1.73;0.80;;;29.20;56.80;;;;;;4101193;28;20045;-58
2021/12/14 06:46:30;;;;;;;3.78;1.40;;;29.10;56.50;;;;;;4093513;28;20064;-54
2021/12/14 06:48:40;;;;;;;3.08;1.15;;;29.10;52.80;;;;;;4095361;28;21196;-53
2021/12/14 06:50:50;;;;;;;5.80;1.48;;;29.00;50.90;;;;;;4092061;28;20057;-51
2021/12/14 06:53:07;;;;;;;3.42;1.40;;;28.70;48.90;;;;;;4091567;28;20169;-50
2021/12/14 06:55:24;;;;;;;2.70;1.30;;;28.50;48.70;;;;;;4094303;28;20478;-51
2021/12/14 06:57:26;;;;;;;2.53;1.40;;;28.30;47.50;;;;;;4096752;28;20049;-54
2021/12/14 06:59:28;;;;;;;2.88;1.63;;;28.10;47.80;;;;;;4091288;28;20059;-53
2021/12/14 07:02:13;;;;;;;7.57;2.80;;;27.80;46.10;;;;;;4136653;27;20533;-52
2021/12/14 07:04:28;;;;;;;9.73;3.78;;;27.60;46.70;;;;;;4142654;28;20086;-55
2021/12/14 07:06:54;;;;;;;9.57;4.00;;;27.40;46.50;;;;;;4137678;28;20069;-53
2021/12/14 07:09:16;;;;;;;10.98;4.00;;;27.20;46.00;;;;;;4138375;28;20168;-54
2021/12/14 07:11:23;;;;;;;8.07;3.20;;;27.00;46.10;;;;;;4149119;28;20071;-53
2021/12/14 07:13:36;;;;;;;10.85;3.42;;;26.80;46.20;;;;;;4145514;28;20174;-56
2021/12/14 07:15:38;;;;;;;7.65;2.83;;;26.60;46.30;;;;;;4148169;28;20058;-51
2021/12/14 07:17:48;;;;;;;6.18;3.15;;;26.50;47.10;;;;;;4140772;28;20058;-49
2021/12/14 07:20:04;;;;;;;6.43;2.83;;;26.30;46.60;;;;;;4141999;28;20171;-55
2021/12/14 07:22:12;;;;;;;5.78;2.25;;;26.20;46.80;;;;;;4118750;28;20048;-46
2021/12/14 07:24:23;;;;;;;4.97;2.00;;;26.10;46.80;;;;;;4141496;28;20043;-53
2021/12/14 07:26:25;;;;;;;6.03;2.08;;;25.90;47.00;;;;;;4139206;28;20086;-50
2021/12/14 07:28:45;;;;;;;3.50;1.90;;;25.80;47.10;;;;;;4146113;28;20138;-49
2021/12/14 07:31:00;;;;;;;3.58;1.52;;;25.60;46.80;;;;;;4139379;28;20421;-49
2021/12/14 07:33:10;;;;;;;3.95;2.30;;;25.50;46.90;;;;;;4121340;28;21607;-49
2021/12/14 07:35:18;;;;;;;6.00;2.03;;;25.40;47.80;;;;;;4125742;28;20078;-48
2021/12/14 07:37:35;;;;;;;6.80;1.60;;;25.30;48.40;;;;;;4121529;28;20119;-47
2021/12/14 07:39:37;;;;;;;5.47;1.70;;;25.30;49.20;;;;;;4124011;28;20052;-50
2021/12/14 07:41:49;;;;;;;5.03;1.95;;;25.40;49.70;;;;;;4095087;28;20084;-52
2021/12/14 07:44:20;;;;;;;5.10;1.42;;;25.40;50.20;;;;;;4128383;28;20213;-51
2021/12/14 07:46:26;;;;;;;3.20;1.25;;;25.50;50.70;;;;;;4123247;28;20054;-53
2021/12/14 07:48:51;;;;;;;5.55;1.35;;;25.50;51.00;;;;;;4121597;28;21280;-51
2021/12/14 07:50:56;;;;;;;1.63;1.05;;;25.60;51.60;;;;;;4131026;28;20121;-57
2021/12/14 07:52:58;;;;;;;3.97;0.90;;;25.60;52.10;;;;;;4119681;28;20059;-55
2021/12/14 07:55:10;;;;;;;3.92;0.77;;;25.70;52.40;;;;;;4124121;28;20040;-52
2021/12/14 07:57:19;;;;;;;5.30;1.48;;;25.70;52.60;;;;;;4121111;28;20135;-51
2021/12/14 07:59:43;;;;;;;3.40;1.10;;;25.70;52.90;;;;;;4122863;28;20053;-51
2021/12/14 08:01:47;;;;;;;5.82;1.05;;;25.70;53.10;;;;;;4123095;28;20087;-53
2021/12/14 08:03:59;;;;;;;3.83;1.13;;;25.80;53.50;;;;;;4121878;28;20048;-54
2021/12/14 08:06:06;;;;;;;1.58;0.80;;;25.80;53.90;;;;;;4120148;28;20056;-53
2021/12/14 08:08:53;;;;;;;2.85;1.20;;;25.90;54.20;;;;;;4123196;28;20051;-54
2021/12/14 08:11:08;;;;;;;3.35;1.08;;;25.90;54.20;;;;;;4123306;28;20134;-56
2021/12/14 08:13:23;;;;;;;3.60;1.00;;;25.90;54.40;;;;;;4115080;28;20067;-54
2021/12/14 08:15:58;;;;;;;4.40;1.45;;;25.90;54.30;;;;;;4112824;28;20048;-55
2021/12/14 08:18:14;;;;;;;4.97;1.98;;;26.00;54.30;;;;;;4110394;28;21423;-51
2021/12/14 08:20:22;;;;;;;5.05;1.88;;;26.00;54.60;;;;;;4088507;28;20160;-54
2021/12/14 08:22:33;;;;;;;6.45;1.90;;;26.00;54.90;;;;;;4114056;28;20495;-56
2021/12/14 08:24:37;;;;;;;4.50;1.75;;;26.10;55.80;;;;;;4099090;28;20050;-56
2021/12/14 08:26:46;;;;;;;3.45;1.38;;;26.10;55.30;;;;;;4103526;28;20175;-54
2021/12/14 08:28:55;;;;;;;4.78;1.40;;;26.10;55.30;;;;;;4099560;28;21911;-54
2021/12/14 08:31:03;;;;;;;4.88;1.65;;;26.10;55.50;;;;;;4095539;28;21590;-56
2021/12/14 08:33:16;;;;;;;6.07;1.50;;;26.20;56.30;;;;;;4136581;28;20056;-51
2021/12/14 08:35:18;;;;;;;3.80;1.67;;;26.20;55.70;;;;;;4171666;28;20628;-56
2021/12/14 08:37:40;;;;;;;4.30;1.52;;;26.30;55.90;;;;;;4176877;28;20487;-56
2021/12/14 08:39:50;;;;;;;4.15;1.58;;;26.30;55.90;;;;;;4178430;28;20171;-52
2021/12/14 08:42:10;;;;;;;3.60;1.60;;;26.40;56.30;;;;;;4151309;28;20057;-53
2021/12/14 08:44:20;;;;;;;3.85;1.60;;;26.40;56.50;;;;;;4148255;28;20052;-50
2021/12/14 08:46:29;;;;;;;4.20;1.30;;;26.40;56.60;;;;;;4142683;28;20044;-51
2021/12/14 08:48:36;;;;;;;3.28;1.25;;;26.50;56.40;;;;;;4144746;28;20076;-56
2021/12/14 08:50:54;;;;;;;4.22;1.50;;;26.50;56.30;;;;;;4139865;28;21244;-52
2021/12/14 08:52:57;;;;;;;6.70;1.50;;;26.50;56.30;;;;;;4125595;28;20136;-50
2021/12/14 08:55:03;;;;;;;4.38;1.73;;;26.60;56.50;;;;;;4136653;28;20048;-47
2021/12/14 08:57:25;;;;;;;3.92;1.38;;;26.60;56.50;;;;;;4129551;28;20082;-54
2021/12/14 08:59:28;;;;;;;5.32;1.50;;;26.60;56.70;;;;;;4137535;28;21455;-49
2021/12/14 09:01:32;;;;;;;3.53;1.88;;;26.60;56.70;;;;;;4115314;28;20061;-50
2021/12/14 09:03:40;;;;;;;3.70;1.38;;;26.70;56.80;;;;;;4139146;28;20051;-51
2021/12/14 09:05:47;;;;;;;2.30;1.17;;;26.70;56.70;;;;;;4147027;28;20184;-52
2021/12/14 09:07:49;;;;;;;2.85;1.38;;;26.70;56.70;;;;;;4147597;28;20171;-53
2021/12/14 09:09:53;;;;;;;4.65;1.20;;;26.70;56.60;;;;;;4121290;28;20053;-50
2021/12/14 09:12:06;;;;;;;2.97;1.10;;;26.80;56.70;;;;;;4137150;28;20499;-56
2021/12/14 09:14:13;;;;;;;3.15;1.30;;;26.80;56.80;;;;;;4138086;28;20053;-53
2021/12/14 09:16:28;;;;;;;2.28;1.40;;;26.80;56.60;;;;;;4140600;28;20782;-54
2021/12/14 09:18:33;;;;;;;3.85;1.15;;;26.90;56.80;;;;;;4138085;28;20060;-54
2021/12/14 09:20:42;;;;;;;2.78;1.05;;;26.90;56.70;;;;;;4145121;28;20108;-51
2021/12/14 09:22:47;;;;;;;2.97;1.10;;;26.90;56.80;;;;;;4144412;28;20157;-47
2021/12/14 09:24:49;;;;;;;2.38;1.30;;;27.00;56.80;;;;;;4141407;28;20897;-54
2021/12/14 09:26:55;;;;;;;5.85;1.45;;;27.00;56.80;;;;;;4138321;28;20099;-51
2021/12/14 09:28:58;;;;;;;3.70;1.23;;;26.90;57.00;;;;;;4138656;28;20059;-51
2021/12/14 09:31:05;;;;;;;4.30;1.30;;;27.00;56.80;;;;;;4147178;28;20172;-51
2021/12/14 09:33:08;;;;;;;2.55;0.95;;;27.00;56.60;;;;;;4130975;28;20060;-55
2021/12/14 09:35:16;;;;;;;2.30;1.08;;;27.00;56.60;;;;;;4140469;28;20048;-49
2021/12/14 09:37:19;;;;;;;1.80;1.00;;;27.10;56.80;;;;;;4135678;28;20052;-52
2021/12/14 09:39:35;;;;;;;4.63;1.20;;;27.10;56.70;;;;;;4142708;28;20049;-50
2021/12/14 09:41:43;;;;;;;2.45;1.13;;;27.10;56.70;;;;;;4141993;28;20056;-51
2021/12/14 09:43:47;;;;;;;3.05;1.10;;;27.10;56.70;;;;;;4144976;28;20541;-52
2021/12/14 09:45:54;;;;;;;2.80;1.10;;;27.20;56.70;;;;;;4150563;28;20053;-52
2021/12/14 09:47:57;;;;;;;1.70;0.93;;;27.20;56.60;;;;;;4128145;28;20143;-54
2021/12/14 09:50:10;;;;;;;3.45;1.10;;;27.20;56.60;;;;;;4141040;28;20063;-50
2021/12/14 09:52:24;;;;;;;1.05;0.80;;;27.20;56.60;;;;;;4141824;28;20687;-50
2021/12/14 09:54:28;;;;;;;1.73;1.00;;;27.20;56.60;;;;;;4143252;28;20108;-52
2021/12/14 09:56:34;;;;;;;1.17;0.80;;;27.20;56.60;;;;;;4140625;28;20044;-54
2021/12/14 09:58:44;;;;;;;2.47;1.17;;;27.20;56.50;;;;;;4150224;28;20774;-56
2021/12/14 10:02:30;;;;;;;1.63;0.90;;;27.30;56.10;;;;;;4174721;27;20148;-52
2021/12/14 10:04:49;;;;;;;2.42;0.95;;;27.30;56.60;;;;;;4170581;28;20062;-50
2021/12/14 10:06:53;;;;;;;2.08;1.00;;;27.30;56.60;;;;;;4167780;28;20052;-55
2021/12/14 10:09:04;;;;;;;1.65;0.70;;;27.30;56.60;;;;;;4151332;28;20049;-50
2021/12/14 10:11:42;;;;;;;1.95;0.90;;;27.30;56.60;;;;;;4133347;28;22249;-49
2021/12/14 10:13:46;;;;;;;2.28;0.73;;;27.30;56.60;;;;;;4155904;28;20075;-51
2021/12/14 10:15:52;;;;;;;1.10;0.80;;;27.30;56.60;;;;;;4157877;28;20067;-51
2021/12/14 10:17:59;;;;;;;1.23;0.77;;;27.40;56.60;;;;;;4159009;28;20052;-52
2021/12/14 10:20:01;;;;;;;1.25;0.77;;;27.40;56.60;;;;;;4164370;28;20507;-56
2021/12/14 10:22:09;;;;;;;1.45;0.77;;;27.40;56.60;;;;;;4154847;28;20048;-57
2021/12/14 10:24:12;;;;;;;1.02;0.73;;;27.40;56.50;;;;;;4156308;28;20333;-56
2021/12/14 10:26:15;;;;;;;1.30;0.80;;;27.40;56.60;;;;;;4154060;28;20676;-49
2021/12/14 10:28:17;;;;;;;;;;;27.40;56.50;;;;;;4163598;28;20052;-51
2021/12/14 10:30:28;;;;;;;1.05;0.60;;;27.40;56.50;;;;;;4156950;28;19984;-52
2021/12/14 10:32:33;;;;;;;0.80;0.70;;;27.40;56.40;;;;;;4155142;28;20411;-50
2021/12/14 10:34:41;;;;;;;1.48;0.70;;;27.40;56.40;;;;;;4143828;28;20076;-52
2021/12/14 10:36:47;;;;;;;1.27;0.40;;;27.40;56.40;;;;;;4135771;28;20052;-51
2021/12/14 10:39:22;;;;;;;1.08;0.70;;;27.40;56.40;;;;;;4139499;28;20048;-52
2021/12/14 10:43:47;;;;;;;1.70;0.80;;;27.50;56.40;;;;;;4137434;28;20175;-51
2021/12/14 10:45:55;;;;;;;2.65;0.90;;;27.50;56.40;;;;;;4145022;28;20052;-52
2021/12/14 10:47:59;;;;;;;0.95;0.60;;;27.40;56.30;;;;;;4140300;28;20074;-50
2021/12/14 10:50:06;;;;;;;1.55;0.70;;;27.50;56.50;;;;;;4134368;28;20143;-49
2021/12/14 10:52:14;;;;;;;1.73;0.80;;;27.50;56.40;;;;;;4133881;28;20186;-51
2021/12/14 10:54:18;;;;;;;1.40;0.88;;;27.50;56.40;;;;;;4136178;28;20057;-49
2021/12/14 10:56:26;;;;;;;0.85;0.63;;;27.50;56.40;;;;;;4139648;28;20045;-55
2021/12/14 10:58:31;;;;;;;1.90;0.80;;;27.50;56.40;;;;;;4144430;28;21312;-54
2021/12/14 11:00:54;;;;;;;0.93;0.50;;;27.50;56.40;;;;;;4135621;28;20296;-55
2021/12/14 11:03:04;;;;;;;0.90;0.70;;;27.50;56.40;;;;;;4144310;28;20107;-53
2021/12/14 11:05:14;;;;;;;1.85;0.90;;;27.50;56.40;;;;;;4143856;28;20063;-51
2021/12/14 11:07:35;;;;;;;0.85;0.52;;;27.50;56.30;;;;;;4142438;28;20088;-50
2021/12/14 11:11:55;;;;;;;1.73;0.63;;;27.50;56.40;;;;;;4142089;28;20045;-49
2021/12/14 11:14:01;;;;;;;2.17;0.80;;;27.50;56.40;;;;;;4132558;28;20083;-53
2021/12/14 11:16:05;;;;;;;1.27;0.65;;;27.50;56.30;;;;;;4133918;28;20134;-53
2021/12/14 11:18:15;;;;;;;1.55;0.77;;;27.50;56.30;;;;;;4121719;28;20372;-52
2021/12/14 11:20:49;;;;;;;0.73;0.52;;;27.50;56.30;;;;;;4123613;28;20160;-53
2021/12/14 11:23:13;;;;;;;1.00;0.80;;;27.50;56.30;;;;;;4109665;28;20057;-51
2021/12/14 11:25:20;;;;;;;0.93;0.75;;;27.50;56.30;;;;;;4123662;28;20052;-52
2021/12/14 11:27:35;;;;;;;1.42;0.90;;;27.50;56.20;;;;;;4121272;28;20130;-50
2021/12/14 11:29:38;;;;;;;1.25;0.70;;;27.50;56.20;;;;;;4123876;28;20278;-47
2021/12/14 11:31:51;;;;;;;2.13;0.80;;;27.50;56.20;;;;;;4122302;28;20088;-51
2021/12/14 11:34:08;;;;;;;1.92;0.68;;;27.50;56.20;;;;;;4124160;28;20139;-50
2021/12/14 11:36:23;;;;;;;0.95;0.50;;;27.50;56.10;;;;;;4122145;28;20049;-49
2021/12/14 11:38:31;;;;;;;2.00;0.70;;;27.60;56.80;;;;;;4123916;28;20052;-53
2021/12/14 11:40:33;;;;;;;1.38;0.65;;;27.60;56.30;;;;;;4120687;28;20806;-51
2021/12/14 11:42:36;;;;;;;1.60;0.77;;;27.50;56.20;;;;;;4127257;28;20053;-51
2021/12/14 11:44:47;;;;;;;1.35;0.70;;;27.60;56.20;;;;;;4131666;28;20349;-51
2021/12/14 11:47:41;;;;;;;0.90;0.60;;;27.60;56.20;;;;;;4130461;28;20184;-53
2021/12/14 11:49:56;;;;;;;1.65;0.68;;;27.60;56.20;;;;;;4134330;28;20051;-51
2021/12/14 11:51:59;;;;;;;0.85;0.80;;;27.50;56.10;;;;;;4128652;28;20605;-49
2021/12/14 11:54:01;;;;;;;1.40;0.90;;;27.60;56.10;;;;;;4135953;28;20054;-47
2021/12/14 11:56:14;;;;;;;1.80;0.70;;;27.60;56.10;;;;;;4123851;28;20061;-52
2021/12/14 11:58:26;;;;;;;1.60;0.80;;;27.50;56.10;;;;;;4123200;28;20099;-52
2021/12/14 12:00:28;;;;;;;1.23;0.50;;;27.50;56.20;;;;;;4120718;28;20743;-49